Time;durP1;ratioP1;P1;durP2;ratioP2;P2;SDS_P1;SDS_P2;PMS_P1;PMS_P2;Temp;Humidity;BMP_temperature;BMP_pressure;BME280_temperature;BME280_humidity;BME280_pressure;Samples;Min_cycle;Max_cycle;Signal;HPM_P1;HPM_P2
2021/04/20 00:00:26;;;;;;;15.67;11.40;;;;;;;;;;4817426;28;20195;-79
2021/04/20 00:02:48;;;;;;;12.03;9.77;;;;;;;;;;4816821;28;20211;-75
2021/04/20 00:05:13;;;;;;;11.33;8.83;;;2.70;99.90;;;;;;4801458;28;20259;-76
2021/04/20 00:07:36;;;;;;;13.60;10.90;;;2.60;99.90;;;;;;4817027;28;20552;-76
2021/04/20 00:09:59;;;;;;;16.20;12.40;;;2.50;99.90;;;;;;4816105;28;20196;-76
2021/04/20 00:12:21;;;;;;;18.13;13.63;;;3.40;99.90;;;;;;4816380;28;20235;-76
2021/04/20 00:14:43;;;;;;;18.73;15.13;;;;;;;;;;4817283;28;20195;-78
2021/04/20 00:17:05;;;;;;;19.90;15.73;;;;;;;;;;4815902;28;20204;-77
2021/04/20 00:19:27;;;;;;;20.97;17.40;;;2.70;99.90;;;;;;4811033;28;20215;-78
2021/04/20 00:21:50;;;;;;;38.43;16.50;;;;;;;;;;4822857;28;20191;-77
2021/04/20 00:24:13;;;;;;;88.60;18.47;;;2.70;99.90;;;;;;4820514;28;20193;-77
2021/04/20 00:26:35;;;;;;;17.67;13.90;;;2.70;99.90;;;;;;4837646;28;20187;-77
2021/04/20 00:28:57;;;;;;;20.37;14.70;;;2.70;99.90;;;;;;4820105;28;20661;-78
2021/04/20 00:31:19;;;;;;;19.83;14.93;;;2.50;99.90;;;;;;4803735;28;20232;-78
2021/04/20 00:33:42;;;;;;;18.03;13.80;;;2.10;99.90;;;;;;4829886;28;20680;-78
2021/04/20 00:36:04;;;;;;;16.30;12.67;;;2.60;99.90;;;;;;4822162;28;20199;-75
2021/04/20 00:38:26;;;;;;;21.33;15.83;;;2.30;99.90;;;;;;4820817;28;20187;-76
2021/04/20 00:40:51;;;;;;;14.83;12.50;;;2.50;99.90;;;;;;4821703;28;20258;-78
2021/04/20 00:43:13;;;;;;;17.80;12.93;;;2.20;99.90;;;;;;4817414;28;20563;-76
2021/04/20 00:45:37;;;;;;;24.97;14.77;;;2.50;99.90;;;;;;4820960;28;20204;-75
2021/04/20 00:48:00;;;;;;;28.37;19.97;;;2.40;99.90;;;;;;4813156;28;20199;-75
2021/04/20 00:50:24;;;;;;;29.23;20.13;;;2.50;99.90;;;;;;4821861;28;20196;-75
2021/04/20 00:52:47;;;;;;;29.40;21.17;;;2.60;99.90;;;;;;4811404;28;20728;-75
2021/04/20 00:55:11;;;;;;;24.97;17.47;;;2.70;99.90;;;;;;4804500;28;20215;-76
2021/04/20 00:57:35;;;;;;;20.47;16.07;;;2.60;99.90;;;;;;4811681;28;20203;-76
2021/04/20 00:59:57;;;;;;;49.80;19.10;;;2.50;99.90;;;;;;4804837;28;20263;-76
2021/04/20 01:02:19;;;;;;;25.17;16.40;;;2.70;99.90;;;;;;4796787;28;20596;-76
2021/04/20 01:04:41;;;;;;;32.97;17.43;;;2.70;99.90;;;;;;4802493;28;20262;-77
2021/04/20 01:07:04;;;;;;;18.83;14.87;;;2.00;99.90;;;;;;4802955;28;20298;-78
2021/04/20 01:09:26;;;;;;;17.90;14.83;;;2.20;99.90;;;;;;4809292;28;20697;-78
2021/04/20 01:11:49;;;;;;;30.67;15.63;;;2.20;99.90;;;;;;4816022;28;20581;-78
2021/04/20 01:14:12;;;;;;;23.10;16.33;;;2.30;99.90;;;;;;4820448;28;20247;-78
2021/04/20 01:16:36;;;;;;;43.37;17.97;;;2.40;99.90;;;;;;4801471;28;20224;-79
2021/04/20 01:18:58;;;;;;;23.57;16.57;;;;;;;;;;4832209;28;20246;-80
2021/04/20 01:21:20;;;;;;;83.63;22.03;;;;;;;;;;4821022;28;20563;-78
2021/04/20 01:23:52;;;;;;;182.73;31.17;;;2.60;99.90;;;;;;4815877;28;20191;-77
2021/04/20 01:26:18;;;;;;;70.23;20.20;;;2.80;99.90;;;;;;4819283;28;20709;-78
2021/04/20 01:28:40;;;;;;;40.10;18.90;;;2.50;99.90;;;;;;4819480;28;20210;-78
2021/04/20 01:31:03;;;;;;;24.80;17.80;;;2.50;99.90;;;;;;4818632;28;20223;-75
2021/04/20 01:33:25;;;;;;;29.57;18.77;;;2.60;99.90;;;;;;4819597;28;20215;-78
2021/04/20 01:35:48;;;;;;;58.93;23.10;;;2.60;99.90;;;;;;4818835;28;20599;-77
2021/04/20 01:38:10;;;;;;;147.20;29.67;;;;;;;;;;4819007;28;20462;-76
2021/04/20 01:40:33;;;;;;;101.33;32.90;;;2.60;99.90;;;;;;4821020;28;20227;-78
2021/04/20 01:42:56;;;;;;;65.20;31.43;;;2.80;99.90;;;;;;4815221;28;20192;-76
2021/04/20 01:45:21;;;;;;;43.87;28.50;;;2.70;99.90;;;;;;4831373;28;20223;-78
2021/04/20 01:47:43;;;;;;;32.17;25.77;;;3.00;99.90;;;;;;4802163;28;20243;-76
2021/04/20 01:50:06;;;;;;;32.60;24.63;;;3.00;99.90;;;;;;4819704;28;20252;-75
2021/04/20 01:52:28;;;;;;;27.97;23.40;;;3.00;99.90;;;;;;4821114;28;20223;-77
2021/04/20 01:54:50;;;;;;;30.33;23.53;;;3.00;99.90;;;;;;4804428;28;20983;-75
2021/04/20 01:57:14;;;;;;;29.33;22.40;;;3.00;99.90;;;;;;4814231;28;20769;-76
2021/04/20 01:59:37;;;;;;;30.43;22.83;;;3.00;99.90;;;;;;4815821;28;20273;-77
2021/04/20 02:01:59;;;;;;;33.17;25.03;;;3.30;99.90;;;;;;4818544;28;20238;-78
2021/04/20 02:04:22;;;;;;;28.77;23.00;;;3.30;99.90;;;;;;4819792;28;20720;-78
2021/04/20 02:06:44;;;;;;;29.67;22.20;;;;;;;;;;4819127;28;20245;-77
2021/04/20 02:09:07;;;;;;;28.77;19.97;;;3.20;99.90;;;;;;4818550;28;20187;-76
2021/04/20 02:11:29;;;;;;;28.70;20.20;;;;;;;;;;4806444;28;20255;-76
2021/04/20 02:13:53;;;;;;;24.83;19.93;;;3.10;99.90;;;;;;4825342;28;20230;-76
2021/04/20 02:16:16;;;;;;;25.70;20.43;;;3.00;99.90;;;;;;4820000;28;20195;-77
2021/04/20 02:18:42;;;;;;;23.67;19.40;;;3.20;99.90;;;;;;4799469;28;20195;-76
2021/04/20 02:21:05;;;;;;;27.37;20.13;;;3.10;99.90;;;;;;4809838;28;20200;-77
2021/04/20 02:23:27;;;;;;;24.87;19.17;;;;;;;;;;4820285;28;20245;-76
2021/04/20 02:25:51;;;;;;;25.17;18.80;;;3.20;99.90;;;;;;4820772;28;20538;-76
2021/04/20 02:28:13;;;;;;;22.60;17.83;;;3.40;99.90;;;;;;4819174;28;20600;-76
2021/04/20 02:30:36;;;;;;;27.07;20.30;;;3.30;99.90;;;;;;4802037;28;20243;-78
2021/04/20 02:32:59;;;;;;;29.77;24.00;;;4.30;99.90;;;;;;4818019;28;20483;-77
2021/04/20 02:35:21;;;;;;;33.37;26.07;;;3.20;99.90;;;;;;4818929;28;20889;-78
2021/04/20 02:37:44;;;;;;;31.83;25.60;;;3.30;99.90;;;;;;4819715;28;20188;-78
2021/04/20 02:40:09;;;;;;;30.10;22.67;;;3.30;99.90;;;;;;4817570;28;20250;-75
2021/04/20 02:42:33;;;;;;;36.63;27.87;;;3.30;99.90;;;;;;4819105;28;20253;-76
2021/04/20 02:44:59;;;;;;;32.73;26.93;;;3.30;99.90;;;;;;4815863;28;20663;-78
2021/04/20 02:47:22;;;;;;;35.57;28.90;;;3.40;99.90;;;;;;4816636;28;20218;-77
2021/04/20 02:49:45;;;;;;;34.47;27.60;;;3.40;99.90;;;;;;4816628;28;20772;-78
2021/04/20 02:52:07;;;;;;;35.57;25.57;;;3.40;99.90;;;;;;4787888;28;20220;-78
2021/04/20 02:54:30;;;;;;;50.50;24.20;;;;;;;;;;4814429;28;20677;-77
2021/04/20 02:56:52;;;;;;;34.50;22.23;;;3.20;99.90;;;;;;4818225;28;20658;-77
2021/04/20 02:59:15;;;;;;;40.17;22.17;;;3.50;99.90;;;;;;4819620;28;20191;-78
2021/04/20 03:01:41;;;;;;;32.87;20.90;;;3.60;99.90;;;;;;4831438;28;20237;-77
2021/04/20 03:04:05;;;;;;;28.83;21.23;;;3.60;99.90;;;;;;4808931;28;20200;-77
2021/04/20 03:06:29;;;;;;;27.83;21.33;;;3.40;99.90;;;;;;4815903;28;20191;-77
2021/04/20 03:08:51;;;;;;;31.70;21.63;;;2.70;99.90;;;;;;4815581;28;20709;-79
2021/04/20 03:11:15;;;;;;;36.93;21.73;;;3.30;99.90;;;;;;4819466;28;20204;-79
2021/04/20 03:13:37;;;;;;;29.53;21.00;;;3.30;99.90;;;;;;4818657;28;20191;-79
2021/04/20 03:16:04;;;;;;;32.43;21.33;;;3.40;99.90;;;;;;4802827;28;20200;-77
2021/04/20 03:18:26;;;;;;;98.27;25.20;;;3.10;99.90;;;;;;4815037;28;20777;-78
2021/04/20 03:20:49;;;;;;;33.67;19.57;;;;;;;;;;4793595;28;20247;-76
2021/04/20 03:23:12;;;;;;;23.77;18.87;;;3.30;99.90;;;;;;4804331;28;20303;-77
2021/04/20 03:25:35;;;;;;;26.83;19.70;;;3.20;99.90;;;;;;4815480;28;20184;-77
2021/04/20 03:27:59;;;;;;;26.60;17.83;;;3.00;99.90;;;;;;4785641;28;20192;-78
2021/04/20 03:30:25;;;;;;;30.03;21.33;;;2.90;99.90;;;;;;4818839;28;20187;-79
2021/04/20 03:32:53;;;;;;;31.07;21.23;;;2.90;99.90;;;;;;4818952;28;20616;-75
2021/04/20 03:35:20;;;;;;;29.07;20.67;;;2.90;99.90;;;;;;4800424;28;20243;-76
2021/04/20 03:37:46;;;;;;;32.43;19.80;;;3.70;99.90;;;;;;4816916;28;20195;-79
2021/04/20 03:40:14;;;;;;;38.90;22.70;;;3.00;99.90;;;;;;4802169;28;20200;-77
2021/04/20 03:42:42;;;;;;;40.97;23.77;;;3.20;99.90;;;;;;4800132;28;20211;-78
2021/04/20 03:45:07;;;;;;;52.60;24.97;;;3.70;99.90;;;;;;4813644;28;20646;-78
2021/04/20 03:47:41;;;;;;;57.83;25.73;;;2.90;99.90;;;;;;4808469;28;20242;-77
2021/04/20 03:50:08;;;;;;;112.57;29.23;;;3.10;99.90;;;;;;4819048;28;20175;-78
2021/04/20 03:52:34;;;;;;;120.63;28.90;;;3.20;99.90;;;;;;4786593;28;20287;-76
2021/04/20 03:54:58;;;;;;;99.13;26.77;;;3.20;99.90;;;;;;4811452;28;20245;-77
2021/04/20 03:57:23;;;;;;;160.53;32.23;;;3.30;99.90;;;;;;4799726;28;20207;-78
2021/04/20 03:59:47;;;;;;;127.30;27.70;;;3.30;99.90;;;;;;4816232;28;20204;-77
2021/04/20 04:02:11;;;;;;;114.30;27.00;;;2.90;99.90;;;;;;4815752;28;21087;-77
2021/04/20 04:04:34;;;;;;;102.97;25.53;;;3.50;99.90;;;;;;4812206;28;20589;-76
2021/04/20 04:06:59;;;;;;;73.73;26.57;;;3.30;99.90;;;;;;4815199;28;20258;-78
2021/04/20 04:09:21;;;;;;;86.47;31.60;;;3.40;99.90;;;;;;4800353;28;20200;-77
2021/04/20 04:11:47;;;;;;;85.80;28.50;;;3.70;99.90;;;;;;4818647;28;20665;-77
2021/04/20 04:14:33;;;;;;;123.40;31.53;;;3.60;99.90;;;;;;4807390;28;20199;-78
2021/04/20 04:17:16;;;;;;;70.50;28.83;;;3.00;99.90;;;;;;4812941;28;20179;-78
2021/04/20 04:19:43;;;;;;;66.30;27.83;;;3.60;99.90;;;;;;4811186;28;20200;-78
2021/04/20 04:22:10;;;;;;;62.27;27.67;;;3.80;99.90;;;;;;4823635;28;20190;-78
2021/04/20 04:24:41;;;;;;;114.83;32.37;;;3.60;99.90;;;;;;4817049;28;20246;-76
2021/04/20 04:27:06;;;;;;;75.50;28.13;;;3.80;99.90;;;;;;4816121;28;20289;-77
2021/04/20 04:29:30;;;;;;;98.60;32.60;;;3.80;99.90;;;;;;4796687;28;20189;-77
2021/04/20 04:31:54;;;;;;;148.00;36.90;;;3.80;99.90;;;;;;4812253;28;20270;-78
2021/04/20 04:34:18;;;;;;;57.27;29.67;;;4.10;99.90;;;;;;4813591;28;20784;-76
2021/04/20 04:36:41;;;;;;;54.17;31.70;;;3.70;99.90;;;;;;4816820;28;20227;-76
2021/04/20 04:39:03;;;;;;;57.17;35.97;;;4.00;99.90;;;;;;4801714;28;20240;-75
2021/04/20 04:41:26;;;;;;;74.43;42.20;;;4.00;99.90;;;;;;4799907;28;20224;-76
2021/04/20 04:43:50;;;;;;;133.27;57.10;;;4.30;99.90;;;;;;4818237;28;20183;-76
2021/04/20 04:46:14;;;;;;;87.23;46.70;;;4.20;99.90;;;;;;4818474;28;20191;-77
2021/04/20 04:48:38;;;;;;;92.20;59.30;;;4.30;99.90;;;;;;4817833;28;20222;-77
2021/04/20 04:51:01;;;;;;;146.83;52.60;;;4.30;99.90;;;;;;4815871;28;20248;-78
2021/04/20 04:53:24;;;;;;;73.97;44.70;;;5.20;99.90;;;;;;4816689;28;20227;-78
2021/04/20 04:55:46;;;;;;;77.70;48.07;;;4.50;99.90;;;;;;4818402;28;20196;-78
2021/04/20 04:58:09;;;;;;;61.20;43.10;;;4.70;99.90;;;;;;4816116;28;20582;-78
2021/04/20 05:00:32;;;;;;;69.40;46.43;;;4.70;99.90;;;;;;4774642;28;20202;-76
2021/04/20 05:02:55;;;;;;;69.13;47.03;;;4.70;99.90;;;;;;4816772;28;20188;-78
2021/04/20 05:05:18;;;;;;;63.10;46.10;;;4.70;99.90;;;;;;4812380;28;20198;-76
2021/04/20 05:07:41;;;;;;;64.57;46.20;;;5.00;99.90;;;;;;4809376;28;20235;-78
2021/04/20 05:10:06;;;;;;;57.97;43.03;;;5.40;99.90;;;;;;4804326;28;20200;-76
2021/04/20 05:12:29;;;;;;;58.13;42.73;;;5.20;99.90;;;;;;4818715;28;20265;-78
2021/04/20 05:14:52;;;;;;;52.73;37.53;;;5.20;99.90;;;;;;4820150;28;20199;-77
2021/04/20 05:17:14;;;;;;;55.40;39.77;;;5.50;99.90;;;;;;4811514;28;20242;-77
2021/04/20 05:19:39;;;;;;;50.50;37.17;;;5.60;99.90;;;;;;4836549;28;20187;-78
2021/04/20 05:22:02;;;;;;;55.53;41.60;;;;;;;;;;4819067;28;20269;-77
2021/04/20 05:24:24;;;;;;;63.90;45.30;;;5.90;99.90;;;;;;4803527;28;20196;-78
2021/04/20 05:26:46;;;;;;;61.10;42.40;;;5.70;99.90;;;;;;4816934;28;20619;-78
2021/04/20 05:29:08;;;;;;;53.97;38.83;;;6.10;99.90;;;;;;4817884;28;20183;-77
2021/04/20 05:31:32;;;;;;;45.13;33.87;;;6.00;99.90;;;;;;4793100;28;20722;-77
2021/04/20 05:33:57;;;;;;;39.13;30.93;;;6.30;99.90;;;;;;4812541;28;20219;-78
2021/04/20 05:36:21;;;;;;;39.90;30.83;;;6.30;99.90;;;;;;4801707;28;20694;-78
2021/04/20 05:38:50;;;;;;;41.20;32.47;;;6.50;99.90;;;;;;4820653;28;20192;-76
2021/04/20 05:41:12;;;;;;;34.17;28.67;;;6.80;99.90;;;;;;4811468;28;20227;-78
2021/04/20 05:43:34;;;;;;;27.93;23.27;;;6.70;99.90;;;;;;4802331;28;20702;-76
2021/04/20 05:45:56;;;;;;;25.47;21.60;;;7.00;99.90;;;;;;4815022;28;20250;-77
2021/04/20 05:48:19;;;;;;;23.53;20.87;;;6.80;99.90;;;;;;4792153;28;20745;-77
2021/04/20 05:50:42;;;;;;;22.50;19.53;;;6.70;99.90;;;;;;4819351;28;20234;-77
2021/04/20 05:53:05;;;;;;;22.30;19.97;;;7.10;99.90;;;;;;4820170;28;20216;-76
2021/04/20 05:55:28;;;;;;;24.23;21.60;;;7.60;99.90;;;;;;4815886;28;20199;-78
2021/04/20 05:57:51;;;;;;;23.90;21.33;;;7.60;99.90;;;;;;4820373;28;20249;-76
2021/04/20 06:00:15;;;;;;;26.17;23.10;;;8.20;99.90;;;;;;4820883;28;20250;-78
2021/04/20 06:02:39;;;;;;;26.13;23.23;;;8.20;99.90;;;;;;4818929;28;20605;-76
2021/04/20 06:05:05;;;;;;;24.20;20.37;;;8.10;99.90;;;;;;4812321;28;20208;-77
2021/04/20 06:07:28;;;;;;;21.93;18.43;;;8.70;99.90;;;;;;4819626;28;20242;-79
2021/04/20 06:09:52;;;;;;;19.40;17.33;;;8.50;99.90;;;;;;4810961;28;20242;-76
2021/04/20 06:12:15;;;;;;;21.47;18.40;;;8.70;99.90;;;;;;4799983;28;20290;-77
2021/04/20 06:14:37;;;;;;;17.83;16.00;;;8.70;99.90;;;;;;4815442;28;20257;-77
2021/04/20 06:16:59;;;;;;;16.60;14.87;;;;;;;;;;4817092;28;20195;-77
2021/04/20 06:19:21;;;;;;;15.43;13.67;;;8.80;93.30;;;;;;4819871;28;20245;-76
2021/04/20 06:21:46;;;;;;;15.67;14.10;;;9.20;91.00;;;;;;4811029;28;20246;-78
2021/04/20 06:24:09;;;;;;;14.10;12.77;;;8.50;73.20;;;;;;4810783;28;20212;-78
2021/04/20 06:26:36;;;;;;;13.27;11.93;;;9.10;86.40;;;;;;4819042;28;20191;-76
2021/04/20 06:28:58;;;;;;;11.43;10.33;;;9.50;78.70;;;;;;4815711;28;20767;-77
2021/04/20 06:31:21;;;;;;;12.23;11.03;;;9.60;58.10;;;;;;4800057;28;20196;-76
2021/04/20 06:33:45;;;;;;;11.00;9.87;;;;;;;;;;4819809;28;20235;-76
2021/04/20 06:36:09;;;;;;;11.50;10.33;;;10.10;40.70;;;;;;4819256;28;20258;-77
2021/04/20 06:38:33;;;;;;;10.47;9.53;;;9.70;33.00;;;;;;4812700;28;20670;-77
2021/04/20 06:40:57;;;;;;;9.90;8.60;;;10.20;35.80;;;;;;4815968;28;20709;-77
2021/04/20 06:43:28;;;;;;;8.73;7.73;;;10.60;27.40;;;;;;4817511;28;20665;-77
2021/04/20 06:45:54;;;;;;;8.97;8.10;;;10.70;13.50;;;;;;4811328;28;20208;-76
2021/04/20 06:48:25;;;;;;;8.87;8.10;;;11.40;1.00;;;;;;4812620;28;20211;-76
2021/04/20 06:50:53;;;;;;;8.30;7.50;;;11.00;1.00;;;;;;4815760;28;20261;-75
2021/04/20 06:53:18;;;;;;;7.47;6.77;;;11.30;1.00;;;;;;4817818;28;20231;-75
2021/04/20 06:55:47;;;;;;;7.23;6.60;;;11.40;1.00;;;;;;4819025;28;20250;-75
2021/04/20 06:58:17;;;;;;;7.23;6.57;;;11.50;1.00;;;;;;4814092;28;20515;-75
2021/04/20 07:00:49;;;;;;;6.90;6.30;;;11.60;1.00;;;;;;4795107;28;21010;-78
2021/04/20 07:03:21;;;;;;;5.70;5.20;;;11.80;1.00;;;;;;4790762;28;20204;-76
2021/04/20 07:05:49;;;;;;;5.73;5.23;;;12.00;1.00;;;;;;4817144;28;20230;-77
2021/04/20 07:08:18;;;;;;;6.43;5.87;;;12.10;99.90;;;;;;4810601;28;20199;-77
2021/04/20 07:10:42;;;;;;;5.47;4.97;;;12.40;99.90;;;;;;4817353;28;20693;-77
2021/04/20 07:13:07;;;;;;;7.00;5.50;;;12.50;99.90;;;;;;4817092;28;20204;-75
2021/04/20 07:15:31;;;;;;;5.97;5.37;;;12.70;1.00;;;;;;4819255;28;20577;-77
2021/04/20 07:18:21;;;;;;;5.70;5.20;;;13.30;1.00;;;;;;4806102;28;20243;-76
2021/04/20 07:20:54;;;;;;;6.00;5.50;;;13.60;99.90;;;;;;4806837;28;20706;-77
2021/04/20 07:23:42;;;;;;;5.70;5.20;;;13.40;1.00;;;;;;4816730;28;20250;-79
2021/04/20 07:26:26;;;;;;;5.13;4.67;;;13.70;99.90;;;;;;4800796;28;20243;-77
2021/04/20 07:29:07;;;;;;;4.67;4.27;;;13.70;99.90;;;;;;4799134;28;20231;-76
2021/04/20 07:31:38;;;;;;;5.60;5.10;;;13.70;99.90;;;;;;4813239;28;20238;-77
2021/04/20 07:34:14;;;;;;;4.63;4.23;;;14.10;99.90;;;;;;4805771;28;20258;-77
2021/04/20 07:36:51;;;;;;;4.33;3.93;;;13.60;99.90;;;;;;4802052;28;20234;-78
2021/04/20 07:39:18;;;;;;;4.50;4.13;;;13.90;1.00;;;;;;4818062;28;20211;-75
2021/04/20 07:41:48;;;;;;;3.37;3.17;;;13.80;1.00;;;;;;4819224;28;20231;-75
2021/04/20 07:44:19;;;;;;;4.47;3.63;;;13.70;1.00;;;;;;4815620;28;20967;-75
2021/04/20 07:46:47;;;;;;;3.77;3.47;;;13.70;1.00;;;;;;4817609;28;20211;-74
2021/04/20 07:49:23;;;;;;;3.83;3.53;;;13.90;99.90;;;;;;4818111;28;20207;-76
2021/04/20 07:51:55;;;;;;;3.57;3.30;;;13.90;1.00;;;;;;4817378;28;20183;-78
2021/04/20 07:54:25;;;;;;;3.40;3.10;;;14.10;1.00;;;;;;4816369;28;20203;-75
2021/04/20 07:56:52;;;;;;;3.70;3.40;;;14.20;1.00;;;;;;4816400;28;20273;-75
2021/04/20 07:59:21;;;;;;;3.80;3.30;;;14.20;91.80;;;;;;4808926;28;20606;-76
2021/04/20 08:01:52;;;;;;;3.60;3.33;;;14.10;61.50;;;;;;4799800;28;20227;-76
2021/04/20 08:04:29;;;;;;;3.53;3.23;;;14.00;1.00;;;;;;4816100;28;20569;-77
2021/04/20 08:06:58;;;;;;;4.10;3.73;;;14.50;1.00;;;;;;4813072;28;20215;-74
2021/04/20 08:09:24;;;;;;;3.33;3.03;;;14.90;1.00;;;;;;4814405;28;20187;-78
2021/04/20 08:11:50;;;;;;;2.97;2.77;;;14.10;31.00;;;;;;4800682;28;20239;-77
2021/04/20 08:14:22;;;;;;;2.93;2.73;;;14.30;1.00;;;;;;4816005;28;20215;-76
2021/04/20 08:16:49;;;;;;;2.90;2.70;;;14.10;1.00;;;;;;4814938;28;20269;-77
2021/04/20 08:19:17;;;;;;;3.57;3.27;;;14.20;1.00;;;;;;4816609;28;20211;-77
2021/04/20 08:21:44;;;;;;;3.10;2.80;;;14.00;45.60;;;;;;4816901;28;20199;-77
2021/04/20 08:24:11;;;;;;;2.67;2.47;;;14.80;1.00;;;;;;4807139;28;20187;-79
2021/04/20 08:26:40;;;;;;;2.80;2.60;;;14.80;83.70;;;;;;4809529;28;20180;-80
2021/04/20 08:29:05;;;;;;;2.70;2.50;;;14.60;20.10;;;;;;4813547;28;20191;-78
2021/04/20 08:31:34;;;;;;;2.63;2.43;;;14.50;1.00;;;;;;4816284;28;20215;-82
2021/04/20 08:34:04;;;;;;;2.47;2.27;;;14.80;1.00;;;;;;4800794;28;20259;-78
2021/04/20 08:36:37;;;;;;;2.50;2.30;;;15.10;1.00;;;;;;4809972;28;20638;-74
2021/04/20 08:39:07;;;;;;;2.13;2.00;;;15.30;1.00;;;;;;4816426;28;20187;-73
2021/04/20 08:41:34;;;;;;;2.07;1.97;;;16.10;1.00;;;;;;4816203;28;20836;-78
2021/04/20 08:44:09;;;;;;;2.00;1.90;;;15.50;1.00;;;;;;4809206;28;20279;-79
2021/04/20 08:46:40;;;;;;;2.23;2.10;;;16.20;1.00;;;;;;4814780;28;20716;-78
2021/04/20 08:49:12;;;;;;;2.00;1.83;;;15.70;1.00;;;;;;4814104;28;20203;-77
2021/04/20 08:51:44;;;;;;;1.83;1.73;;;16.20;1.00;;;;;;4812491;28;20657;-74
2021/04/20 08:54:18;;;;;;;1.73;1.63;;;15.60;1.00;;;;;;4820028;28;20227;-82
2021/04/20 08:56:46;;;;;;;1.93;1.73;;;15.50;1.00;;;;;;4803720;28;20220;-73
2021/04/20 08:59:33;;;;;;;2.00;1.90;;;15.50;1.00;;;;;;4819830;28;20246;-78
2021/04/20 09:02:10;;;;;;;2.83;2.57;;;15.40;1.00;;;;;;4809982;28;20612;-74
2021/04/20 09:04:54;;;;;;;2.53;2.33;;;14.90;1.00;;;;;;4837945;28;20224;-75
2021/04/20 09:07:26;;;;;;;2.30;2.13;;;15.30;1.00;;;;;;4803715;28;20199;-74
2021/04/20 09:09:49;;;;;;;2.27;2.10;;;15.10;1.00;;;;;;4803984;28;20204;-76
2021/04/20 09:12:14;;;;;;;2.57;2.37;;;14.90;62.10;;;;;;4821234;28;20673;-75
2021/04/20 09:14:39;;;;;;;2.50;2.30;;;14.90;1.00;;;;;;4821329;28;20731;-78
2021/04/20 09:17:06;;;;;;;2.33;2.13;;;14.90;1.00;;;;;;4802143;28;20200;-77
2021/04/20 09:19:35;;;;;;;3.70;2.40;;;14.50;99.90;;;;;;4818775;28;20747;-80
2021/04/20 09:22:09;;;;;;;2.90;2.70;;;14.80;1.00;;;;;;4820117;28;20192;-76
2021/04/20 09:24:40;;;;;;;2.57;2.37;;;16.10;1.00;;;;;;4821486;28;20233;-74
2021/04/20 09:27:11;;;;;;;5.07;2.80;;;18.40;1.00;;;;;;4819018;28;20195;-81
2021/04/20 09:29:36;;;;;;;5.80;1.90;;;20.60;1.00;;;;;;4810148;28;20969;-76
2021/04/20 09:32:00;;;;;;;12.40;2.37;;;22.30;1.00;;;;;;4801040;28;20192;-78
2021/04/20 09:34:25;;;;;;;14.90;2.27;;;22.40;1.00;;;;;;4794847;28;20230;-77
2021/04/20 09:36:52;;;;;;;24.83;3.57;;;21.70;1.00;;;;;;4810788;28;20288;-81
2021/04/20 09:39:15;;;;;;;15.13;2.17;;;;;;;;;;4835221;28;20239;-74
2021/04/20 09:41:40;;;;;;;16.67;2.60;;;19.40;1.00;;;;;;4816906;28;20227;-78
2021/04/20 09:44:14;;;;;;;14.97;2.40;;;18.30;1.00;;;;;;4814632;28;20553;-77
2021/04/20 09:46:49;;;;;;;10.37;1.87;;;17.20;1.00;;;;;;4818137;28;20728;-79
2021/04/20 09:49:17;;;;;;;5.27;1.30;;;16.40;1.00;;;;;;4787186;28;20234;-77
2021/04/20 09:51:47;;;;;;;8.93;1.90;;;15.90;1.00;;;;;;4812248;28;20187;-78
2021/04/20 09:54:16;;;;;;;8.47;2.37;;;15.00;1.00;;;;;;4834587;28;20685;-76
2021/04/20 09:56:42;;;;;;;5.70;2.00;;;14.40;1.00;;;;;;4819153;28;20246;-73
2021/04/20 09:59:10;;;;;;;11.03;3.27;;;15.20;1.00;;;;;;4818639;28;20248;-77
2021/04/20 10:01:47;;;;;;;7.50;2.57;;;15.70;99.90;;;;;;4806525;28;20686;-76
2021/04/20 10:04:11;;;;;;;8.00;2.53;;;16.40;1.00;;;;;;4810691;28;20499;-77
2021/04/20 10:07:03;;;;;;;6.83;2.30;;;16.20;1.00;;;;;;4802560;28;20192;-76
2021/04/20 10:09:33;;;;;;;9.67;2.90;;;16.00;99.90;;;;;;4820241;28;20238;-76
2021/04/20 10:12:08;;;;;;;17.20;4.60;;;15.90;1.00;;;;;;4818093;28;20218;-75
2021/04/20 10:14:43;;;;;;;21.07;4.67;;;15.70;1.00;;;;;;4818973;28;20213;-78
2021/04/20 10:17:11;;;;;;;10.07;3.10;;;15.60;1.00;;;;;;4816855;28;20210;-76
2021/04/20 10:19:40;;;;;;;5.83;2.27;;;15.40;1.00;;;;;;4813590;28;20646;-74
2021/04/20 10:22:17;;;;;;;10.23;3.07;;;15.30;1.00;;;;;;4818105;28;20228;-73
2021/04/20 10:24:52;;;;;;;15.47;4.10;;;15.20;1.00;;;;;;4803754;28;20224;-75
2021/04/20 10:27:18;;;;;;;11.90;3.67;;;15.30;1.00;;;;;;4793935;28;20196;-78
2021/04/20 10:29:47;;;;;;;6.43;2.47;;;16.40;1.00;;;;;;4811469;28;20200;-78
2021/04/20 10:32:17;;;;;;;8.47;2.40;;;18.70;1.00;;;;;;4819941;28;20191;-78
2021/04/20 10:34:45;;;;;;;8.67;1.93;;;20.50;1.00;;;;;;4818934;28;20278;-76
2021/04/20 10:37:08;;;;;;;8.10;1.80;;;;;;;;;;4809801;28;20200;-75
2021/04/20 10:39:30;;;;;;;3.03;0.73;;;;;;;;;;4814686;28;20211;-74
2021/04/20 10:41:54;;;;;;;17.33;2.60;;;24.70;1.00;;;;;;4817983;28;20224;-75
2021/04/20 10:44:18;;;;;;;22.10;2.80;;;24.50;99.90;;;;;;4818307;28;20200;-79
2021/04/20 10:46:43;;;;;;;32.47;3.87;;;24.00;99.90;;;;;;4792134;28;20655;-73
2021/04/20 10:49:07;;;;;;;13.60;1.90;;;23.80;99.90;;;;;;4814879;28;20196;-77
2021/04/20 10:51:32;;;;;;;13.33;1.87;;;25.40;99.90;;;;;;4827077;28;20236;-77
2021/04/20 10:53:55;;;;;;;22.73;3.00;;;;;;;;;;4817692;28;20273;-77
2021/04/20 10:56:18;;;;;;;21.67;2.70;;;28.20;99.90;;;;;;4812210;28;20300;-78
2021/04/20 10:58:44;;;;;;;31.37;28.13;;;29.00;99.90;;;;;;4815191;28;20243;-79
2021/04/20 11:01:07;;;;;;;29.60;22.80;;;;;;;;;;4812787;28;20257;-78
2021/04/20 11:03:34;;;;;;;77.97;65.67;;;28.50;99.90;;;;;;4798267;28;20193;-79
2021/04/20 11:05:56;;;;;;;16.50;2.17;;;;;;;;;;4803997;28;20219;-79
2021/04/20 11:08:36;;;;;;;28.23;3.47;;;26.40;99.90;;;;;;4804142;28;20207;-77
2021/04/20 11:10:58;;;;;;;16.17;2.07;;;;;;;;;;4817502;28;20272;-78
2021/04/20 11:13:34;;;;;;;18.57;2.57;;;23.70;99.90;;;;;;4818476;28;20556;-74
2021/04/20 11:15:57;;;;;;;30.97;4.37;;;22.50;99.90;;;;;;4816096;28;20202;-75
2021/04/20 11:18:22;;;;;;;18.10;2.43;;;21.60;99.90;;;;;;4817971;28;20202;-78
2021/04/20 11:20:49;;;;;;;10.17;1.67;;;20.60;99.90;;;;;;4811578;28;20606;-79
2021/04/20 11:23:17;;;;;;;3.17;0.60;;;19.80;99.90;;;;;;4808248;28;20216;-77
2021/04/20 11:25:45;;;;;;;8.97;1.50;;;19.10;99.90;;;;;;4799357;28;20262;-78
2021/04/20 11:28:15;;;;;;;6.03;1.13;;;18.50;99.90;;;;;;4813981;28;20201;-77
2021/04/20 11:30:41;;;;;;;5.97;1.10;;;18.00;99.90;;;;;;4786151;28;20297;-78
2021/04/20 11:33:10;;;;;;;8.50;1.40;;;17.60;99.90;;;;;;4814662;28;20215;-78
2021/04/20 11:35:33;;;;;;;5.20;0.93;;;;;;;;;;4817201;28;20193;-77
2021/04/20 11:38:01;;;;;;;11.07;1.70;;;20.70;99.90;;;;;;4815065;28;20288;-79
2021/04/20 11:40:30;;;;;;;26.03;3.43;;;24.80;99.90;;;;;;4817944;28;20803;-79
2021/04/20 11:42:55;;;;;;;10.87;1.67;;;26.70;99.90;;;;;;4818155;28;20213;-76
2021/04/20 11:45:20;;;;;;;17.57;2.53;;;27.60;99.90;;;;;;4816623;28;20280;-77
2021/04/20 11:47:54;;;;;;;23.63;3.37;;;27.60;99.90;;;;;;4794312;28;20198;-77
2021/04/20 11:50:19;;;;;;;18.33;2.70;;;26.70;1.00;;;;;;4817030;28;20203;-79
2021/04/20 11:52:43;;;;;;;10.20;1.57;;;25.40;99.90;;;;;;4810585;28;20591;-77
2021/04/20 11:55:10;;;;;;;9.93;1.57;;;24.30;1.00;;;;;;4818614;28;20190;-78
2021/04/20 11:57:33;;;;;;;11.97;1.90;;;23.20;99.90;;;;;;4815585;28;20316;-79
2021/04/20 11:59:56;;;;;;;12.13;1.90;;;;;;;;;;4814520;28;20206;-77
2021/04/20 12:02:19;;;;;;;26.00;3.63;;;21.90;99.90;;;;;;4811244;28;20939;-78
2021/04/20 12:04:46;;;;;;;7.50;1.30;;;22.10;99.90;;;;;;4816334;28;20678;-79
2021/04/20 12:07:09;;;;;;;13.17;1.97;;;;;;;;;;4816418;28;20548;-79
2021/04/20 12:09:38;;;;;;;15.90;2.40;;;28.30;99.90;;;;;;4814900;28;21742;-79
2021/04/20 12:12:02;;;;;;;12.10;1.83;;;31.80;99.90;;;;;;4832303;28;20201;-82
2021/04/20 12:14:28;;;;;;;13.90;2.00;;;33.50;99.90;;;;;;4817060;28;20210;-78
2021/04/20 12:16:53;;;;;;;22.83;3.25;;;;;;;;;;4812477;28;20263;-79
2021/04/20 12:19:18;;;;;;;17.60;2.45;;;32.20;1.00;;;;;;4800144;28;20191;-79
2021/04/20 12:21:46;;;;;;;13.15;1.83;;;30.50;1.00;;;;;;4816909;28;20260;-80
2021/04/20 12:24:10;;;;;;;19.45;2.85;;;29.80;99.90;;;;;;4815551;28;20305;-80
2021/04/20 12:26:33;;;;;;;7.95;1.27;;;29.40;99.90;;;;;;4816691;28;20669;-77
2021/04/20 12:28:59;;;;;;;21.70;3.20;;;30.20;1.00;;;;;;4799190;28;22101;-77
2021/04/20 12:31:28;;;;;;;19.27;2.75;;;30.30;99.90;;;;;;4814487;28;20700;-83
2021/04/20 12:33:50;;;;;;;10.60;1.70;;;32.70;99.90;;;;;;4814280;28;20218;-81
2021/04/20 12:36:24;;;;;;;3.95;0.70;;;35.20;99.90;;;;;;4816205;28;20215;-80
2021/04/20 12:38:46;;;;;;;6.53;1.10;;;;;;;;;;4811161;28;20183;-81
2021/04/20 12:41:09;;;;;;;19.38;2.90;;;36.60;99.90;;;;;;4814914;28;20293;-81
2021/04/20 12:43:34;;;;;;;4.97;0.85;;;35.50;99.90;;;;;;4833187;28;20245;-81